Terminal Aerodrome Forecast
Issued by NWS Goodland, KS

Home | Current Version | Previous Version | Text Only | Print | Product List | Glossary On
Versions: 1 2 3 4 5 6 7 8 9 10 11 12 13 14 15 16
000
FTUS43 KGLD 271912 AAA
TAFGLD
TAF AMD
KGLD 271912Z 2719/2818 20015G23KT P6SM SCT200
     FM272300 22010KT P6SM SCT200
     FM280500 27012KT P6SM SKC=

USA.gov is the U.S. government's official web portal to all federal, state and local government web resources and services.